sensor_id;sensor_type;location;lat;lon;timestamp;P1;durP1;ratioP1;P2;durP2;ratioP2
34872;SDS011;21084;51.098;14.506;2022-10-31T05:49:30;21.10;;;10.05;;
34872;SDS011;21084;51.098;14.506;2022-10-31T06:38:52;31.98;;;17.75;;
34872;SDS011;21084;51.098;14.506;2022-10-31T06:45:00;31.95;;;14.13;;
34872;SDS011;21084;51.098;14.506;2022-10-31T06:48:08;27.77;;;13.45;;
34872;SDS011;21084;51.098;14.506;2022-10-31T06:51:53;21.77;;;12.45;;
34872;SDS011;21084;51.098;14.506;2022-10-31T07:39:46;63.78;;;32.70;;
34872;SDS011;21084;51.098;14.506;2022-10-31T07:42:27;42.47;;;28.20;;
34872;SDS011;21084;51.098;14.506;2022-10-31T07:45:23;42.90;;;25.67;;
34872;SDS011;21084;51.098;14.506;2022-10-31T07:48:36;41.92;;;24.48;;
34872;SDS011;21084;51.098;14.506;2022-10-31T07:58:49;51.60;;;30.95;;
34872;SDS011;21084;51.098;14.506;2022-10-31T08:02:31;48.72;;;30.52;;
34872;SDS011;21084;51.098;14.506;2022-10-31T09:00:29;18.40;;;7.05;;
34872;SDS011;21084;51.098;14.506;2022-10-31T09:03:22;20.48;;;7.10;;
34872;SDS011;21084;51.098;14.506;2022-10-31T09:06:45;16.45;;;6.70;;
34872;SDS011;21084;51.098;14.506;2022-10-31T09:13:09;18.40;;;7.07;;
34872;SDS011;21084;51.098;14.506;2022-10-31T09:17:33;18.15;;;7.40;;
34872;SDS011;21084;51.098;14.506;2022-10-31T09:24:34;18.48;;;8.75;;
34872;SDS011;21084;51.098;14.506;2022-10-31T09:28:02;25.13;;;9.77;;
34872;SDS011;21084;51.098;14.506;2022-10-31T09:31:18;27.88;;;11.80;;
34872;SDS011;21084;51.098;14.506;2022-10-31T10:17:47;28.55;;;7.95;;
34872;SDS011;21084;51.098;14.506;2022-10-31T10:20:29;25.98;;;8.93;;
34872;SDS011;21084;51.098;14.506;2022-10-31T10:23:08;21.98;;;7.85;;
34872;SDS011;21084;51.098;14.506;2022-10-31T10:25:50;17.85;;;8.90;;
34872;SDS011;21084;51.098;14.506;2022-10-31T10:28:30;22.00;;;9.00;;
34872;SDS011;21084;51.098;14.506;2022-10-31T10:31:05;21.77;;;9.15;;
34872;SDS011;21084;51.098;14.506;2022-10-31T10:33:38;23.38;;;9.95;;
34872;SDS011;21084;51.098;14.506;2022-10-31T10:36:10;26.52;;;8.82;;
34872;SDS011;21084;51.098;14.506;2022-10-31T10:38:48;24.25;;;9.70;;
34872;SDS011;21084;51.098;14.506;2022-10-31T10:41:21;25.15;;;8.52;;
34872;SDS011;21084;51.098;14.506;2022-10-31T10:43:55;21.58;;;8.65;;
34872;SDS011;21084;51.098;14.506;2022-10-31T10:46:25;23.60;;;9.18;;
34872;SDS011;21084;51.098;14.506;2022-10-31T10:49:21;21.75;;;8.10;;
34872;SDS011;21084;51.098;14.506;2022-10-31T10:51:54;23.67;;;8.43;;
34872;SDS011;21084;51.098;14.506;2022-10-31T10:54:46;22.15;;;8.57;;
34872;SDS011;21084;51.098;14.506;2022-10-31T10:57:32;26.08;;;8.70;;
34872;SDS011;21084;51.098;14.506;2022-10-31T11:00:15;24.52;;;8.45;;
34872;SDS011;21084;51.098;14.506;2022-10-31T11:02:46;22.17;;;8.20;;
34872;SDS011;21084;51.098;14.506;2022-10-31T11:05:18;30.88;;;8.23;;
34872;SDS011;21084;51.098;14.506;2022-10-31T11:07:50;19.20;;;8.00;;
34872;SDS011;21084;51.098;14.506;2022-10-31T11:10:19;23.55;;;7.78;;
34872;SDS011;21084;51.098;14.506;2022-10-31T11:12:57;22.08;;;6.90;;
34872;SDS011;21084;51.098;14.506;2022-10-31T11:15:31;18.92;;;7.03;;
34872;SDS011;21084;51.098;14.506;2022-10-31T11:18:02;23.90;;;7.82;;
34872;SDS011;21084;51.098;14.506;2022-10-31T11:20:33;24.65;;;7.55;;
34872;SDS011;21084;51.098;14.506;2022-10-31T11:23:04;17.48;;;7.10;;
34872;SDS011;21084;51.098;14.506;2022-10-31T11:25:48;24.23;;;7.57;;
34872;SDS011;21084;51.098;14.506;2022-10-31T11:28:18;25.92;;;8.02;;
34872;SDS011;21084;51.098;14.506;2022-10-31T11:30:47;23.48;;;8.10;;
34872;SDS011;21084;51.098;14.506;2022-10-31T11:33:19;15.38;;;7.22;;
34872;SDS011;21084;51.098;14.506;2022-10-31T11:35:53;18.98;;;7.55;;
34872;SDS011;21084;51.098;14.506;2022-10-31T11:38:26;20.30;;;7.75;;
34872;SDS011;21084;51.098;14.506;2022-10-31T11:41:02;17.67;;;6.93;;
34872;SDS011;21084;51.098;14.506;2022-10-31T11:43:36;23.70;;;6.75;;
34872;SDS011;21084;51.098;14.506;2022-10-31T11:48:38;18.70;;;6.88;;
34872;SDS011;21084;51.098;14.506;2022-10-31T11:51:07;18.55;;;6.88;;
34872;SDS011;21084;51.098;14.506;2022-10-31T11:53:36;22.50;;;7.20;;
34872;SDS011;21084;51.098;14.506;2022-10-31T11:56:05;16.92;;;6.45;;
34872;SDS011;21084;51.098;14.506;2022-10-31T11:58:39;18.48;;;6.25;;
34872;SDS011;21084;51.098;14.506;2022-10-31T12:01:19;18.03;;;6.53;;
34872;SDS011;21084;51.098;14.506;2022-10-31T12:03:54;15.00;;;6.35;;
34872;SDS011;21084;51.098;14.506;2022-10-31T12:06:33;14.32;;;5.10;;
34872;SDS011;21084;51.098;14.506;2022-10-31T12:09:04;23.20;;;5.88;;
34872;SDS011;21084;51.098;14.506;2022-10-31T12:11:48;21.75;;;5.65;;
34872;SDS011;21084;51.098;14.506;2022-10-31T12:14:34;15.55;;;6.00;;
34872;SDS011;21084;51.098;14.506;2022-10-31T12:17:13;21.58;;;5.85;;
34872;SDS011;21084;51.098;14.506;2022-10-31T12:19:46;19.52;;;5.40;;
34872;SDS011;21084;51.098;14.506;2022-10-31T12:22:25;22.40;;;6.18;;
34872;SDS011;21084;51.098;14.506;2022-10-31T12:25:08;14.90;;;5.35;;
34872;SDS011;21084;51.098;14.506;2022-10-31T12:27:56;12.45;;;6.28;;
34872;SDS011;21084;51.098;14.506;2022-10-31T12:30:50;20.98;;;6.18;;
34872;SDS011;21084;51.098;14.506;2022-10-31T12:33:29;17.52;;;5.57;;
34872;SDS011;21084;51.098;14.506;2022-10-31T12:36:11;13.30;;;6.05;;
34872;SDS011;21084;51.098;14.506;2022-10-31T12:39:08;12.70;;;5.30;;
34872;SDS011;21084;51.098;14.506;2022-10-31T12:42:02;22.35;;;5.68;;
34872;SDS011;21084;51.098;14.506;2022-10-31T12:45:00;17.10;;;6.05;;
34872;SDS011;21084;51.098;14.506;2022-10-31T12:47:53;16.67;;;5.80;;
34872;SDS011;21084;51.098;14.506;2022-10-31T12:50:43;13.50;;;5.32;;
34872;SDS011;21084;51.098;14.506;2022-10-31T12:53:22;13.25;;;4.82;;
34872;SDS011;21084;51.098;14.506;2022-10-31T12:56:04;17.88;;;5.25;;
34872;SDS011;21084;51.098;14.506;2022-10-31T12:58:43;11.52;;;4.78;;
34872;SDS011;21084;51.098;14.506;2022-10-31T13:01:15;13.95;;;4.60;;
34872;SDS011;21084;51.098;14.506;2022-10-31T13:07:09;16.90;;;5.90;;
34872;SDS011;21084;51.098;14.506;2022-10-31T13:09:42;18.50;;;5.28;;
34872;SDS011;21084;51.098;14.506;2022-10-31T13:12:19;10.30;;;4.85;;
34872;SDS011;21084;51.098;14.506;2022-10-31T13:14:50;12.80;;;4.85;;
34872;SDS011;21084;51.098;14.506;2022-10-31T13:17:23;12.07;;;4.85;;
34872;SDS011;21084;51.098;14.506;2022-10-31T13:19:57;16.17;;;5.15;;
34872;SDS011;21084;51.098;14.506;2022-10-31T13:22:32;18.92;;;5.22;;
34872;SDS011;21084;51.098;14.506;2022-10-31T13:25:03;15.68;;;4.95;;
34872;SDS011;21084;51.098;14.506;2022-10-31T13:27:42;14.52;;;5.75;;
34872;SDS011;21084;51.098;14.506;2022-10-31T13:30:16;15.68;;;4.95;;
34872;SDS011;21084;51.098;14.506;2022-10-31T13:32:48;14.45;;;4.97;;
34872;SDS011;21084;51.098;14.506;2022-10-31T13:35:20;14.25;;;5.20;;
34872;SDS011;21084;51.098;14.506;2022-10-31T13:37:57;18.35;;;5.03;;
34872;SDS011;21084;51.098;14.506;2022-10-31T13:40:34;13.80;;;5.78;;
34872;SDS011;21084;51.098;14.506;2022-10-31T13:43:11;18.05;;;5.53;;
34872;SDS011;21084;51.098;14.506;2022-10-31T13:45:49;12.48;;;4.57;;
34872;SDS011;21084;51.098;14.506;2022-10-31T13:48:19;18.58;;;5.32;;
34872;SDS011;21084;51.098;14.506;2022-10-31T13:51:03;14.68;;;5.13;;
34872;SDS011;21084;51.098;14.506;2022-10-31T13:53:38;15.18;;;5.50;;
34872;SDS011;21084;51.098;14.506;2022-10-31T13:56:15;17.45;;;5.32;;
34872;SDS011;21084;51.098;14.506;2022-10-31T14:01:51;19.90;;;5.88;;
34872;SDS011;21084;51.098;14.506;2022-10-31T14:04:22;21.55;;;6.25;;
34872;SDS011;21084;51.098;14.506;2022-10-31T14:06:57;19.35;;;5.30;;
34872;SDS011;21084;51.098;14.506;2022-10-31T14:09:33;15.75;;;5.78;;
34872;SDS011;21084;51.098;14.506;2022-10-31T14:12:05;10.32;;;5.40;;
34872;SDS011;21084;51.098;14.506;2022-10-31T14:14:43;31.25;;;6.30;;
34872;SDS011;21084;51.098;14.506;2022-10-31T14:17:19;20.92;;;6.07;;
34872;SDS011;21084;51.098;14.506;2022-10-31T14:23:12;16.33;;;6.53;;
34872;SDS011;21084;51.098;14.506;2022-10-31T14:26:06;18.88;;;6.70;;
34872;SDS011;21084;51.098;14.506;2022-10-31T14:28:49;25.42;;;7.57;;
34872;SDS011;21084;51.098;14.506;2022-10-31T14:31:29;15.57;;;6.55;;
34872;SDS011;21084;51.098;14.506;2022-10-31T14:34:01;16.15;;;6.70;;
34872;SDS011;21084;51.098;14.506;2022-10-31T14:36:49;18.00;;;6.93;;
34872;SDS011;21084;51.098;14.506;2022-10-31T14:39:27;24.23;;;7.35;;
34872;SDS011;21084;51.098;14.506;2022-10-31T14:42:07;21.55;;;5.97;;
34872;SDS011;21084;51.098;14.506;2022-10-31T14:45:01;18.75;;;7.75;;
34872;SDS011;21084;51.098;14.506;2022-10-31T14:51:33;16.35;;;6.95;;
34872;SDS011;21084;51.098;14.506;2022-10-31T14:54:05;18.88;;;7.32;;
34872;SDS011;21084;51.098;14.506;2022-10-31T14:56:44;16.70;;;6.53;;
34872;SDS011;21084;51.098;14.506;2022-10-31T14:59:17;15.75;;;6.95;;
34872;SDS011;21084;51.098;14.506;2022-10-31T15:01:56;15.13;;;6.93;;
34872;SDS011;21084;51.098;14.506;2022-10-31T15:04:27;16.70;;;7.18;;
34872;SDS011;21084;51.098;14.506;2022-10-31T15:07:11;19.85;;;7.53;;
34872;SDS011;21084;51.098;14.506;2022-10-31T15:09:56;20.05;;;8.20;;
34872;SDS011;21084;51.098;14.506;2022-10-31T15:12:25;30.35;;;8.82;;
34872;SDS011;21084;51.098;14.506;2022-10-31T15:14:56;26.13;;;9.88;;
34872;SDS011;21084;51.098;14.506;2022-10-31T15:17:25;26.98;;;9.82;;
34872;SDS011;21084;51.098;14.506;2022-10-31T15:19:54;27.63;;;9.10;;
34872;SDS011;21084;51.098;14.506;2022-10-31T15:22:24;25.17;;;8.55;;
34872;SDS011;21084;51.098;14.506;2022-10-31T15:24:56;22.98;;;8.77;;
34872;SDS011;21084;51.098;14.506;2022-10-31T15:27:24;22.98;;;9.65;;
34872;SDS011;21084;51.098;14.506;2022-10-31T15:29:55;22.98;;;8.77;;
34872;SDS011;21084;51.098;14.506;2022-10-31T15:32:24;23.33;;;8.25;;
34872;SDS011;21084;51.098;14.506;2022-10-31T15:34:55;22.08;;;7.43;;
34872;SDS011;21084;51.098;14.506;2022-10-31T15:37:26;15.90;;;7.35;;
34872;SDS011;21084;51.098;14.506;2022-10-31T18:12:17;46.00;;;24.02;;
34872;SDS011;21084;51.098;14.506;2022-10-31T18:19:30;43.25;;;23.65;;
34872;SDS011;21084;51.098;14.506;2022-10-31T18:38:42;48.25;;;26.55;;
34872;SDS011;21084;51.098;14.506;2022-10-31T18:42:24;229.63;;;116.70;;
34872;SDS011;21084;51.098;14.506;2022-10-31T18:46:35;84.22;;;44.47;;
34872;SDS011;21084;51.098;14.506;2022-10-31T19:06:40;49.03;;;26.50;;
34872;SDS011;21084;51.098;14.506;2022-10-31T19:10:21;50.75;;;25.30;;
34872;SDS011;21084;51.098;14.506;2022-10-31T19:33:06;73.05;;;34.53;;
34872;SDS011;21084;51.098;14.506;2022-10-31T19:36:40;64.85;;;30.88;;
34872;SDS011;21084;51.098;14.506;2022-10-31T19:50:09;86.18;;;35.67;;
34872;SDS011;21084;51.098;14.506;2022-10-31T19:57:36;82.10;;;31.67;;
34872;SDS011;21084;51.098;14.506;2022-10-31T20:00:24;80.50;;;30.98;;
34872;SDS011;21084;51.098;14.506;2022-10-31T20:02:54;72.72;;;29.15;;
34872;SDS011;21084;51.098;14.506;2022-10-31T20:05:25;75.93;;;29.70;;
34872;SDS011;21084;51.098;14.506;2022-10-31T20:07:54;75.20;;;31.38;;
34872;SDS011;21084;51.098;14.506;2022-10-31T20:10:23;78.97;;;33.70;;
34872;SDS011;21084;51.098;14.506;2022-10-31T20:12:51;70.53;;;32.95;;
34872;SDS011;21084;51.098;14.506;2022-10-31T20:15:19;74.63;;;33.00;;
34872;SDS011;21084;51.098;14.506;2022-10-31T20:17:48;66.20;;;31.30;;
34872;SDS011;21084;51.098;14.506;2022-10-31T20:20:17;67.40;;;30.27;;
34872;SDS011;21084;51.098;14.506;2022-10-31T20:22:48;56.53;;;30.13;;
34872;SDS011;21084;51.098;14.506;2022-10-31T20:25:18;58.88;;;28.70;;
34872;SDS011;21084;51.098;14.506;2022-10-31T20:27:47;58.97;;;29.23;;
34872;SDS011;21084;51.098;14.506;2022-10-31T20:30:15;55.63;;;29.88;;
34872;SDS011;21084;51.098;14.506;2022-10-31T20:32:44;56.10;;;31.23;;
34872;SDS011;21084;51.098;14.506;2022-10-31T20:35:15;61.53;;;32.65;;
34872;SDS011;21084;51.098;14.506;2022-10-31T20:37:44;59.70;;;31.70;;
34872;SDS011;21084;51.098;14.506;2022-10-31T20:40:14;59.03;;;28.20;;
34872;SDS011;21084;51.098;14.506;2022-10-31T20:42:42;45.55;;;27.00;;
34872;SDS011;21084;51.098;14.506;2022-10-31T20:45:10;51.13;;;27.40;;
34872;SDS011;21084;51.098;14.506;2022-10-31T20:47:42;49.35;;;26.90;;
34872;SDS011;21084;51.098;14.506;2022-10-31T20:50:11;53.35;;;26.30;;
34872;SDS011;21084;51.098;14.506;2022-10-31T20:52:41;50.83;;;25.92;;
34872;SDS011;21084;51.098;14.506;2022-10-31T20:55:10;60.65;;;29.05;;
34872;SDS011;21084;51.098;14.506;2022-10-31T20:57:40;54.55;;;27.15;;
34872;SDS011;21084;51.098;14.506;2022-10-31T21:00:09;54.25;;;27.27;;
34872;SDS011;21084;51.098;14.506;2022-10-31T21:02:40;58.67;;;29.25;;
34872;SDS011;21084;51.098;14.506;2022-10-31T21:05:11;70.05;;;36.13;;
34872;SDS011;21084;51.098;14.506;2022-10-31T21:07:41;136.60;;;71.15;;
34872;SDS011;21084;51.098;14.506;2022-10-31T21:10:10;115.47;;;52.05;;
34872;SDS011;21084;51.098;14.506;2022-10-31T21:12:43;113.20;;;46.65;;
34872;SDS011;21084;51.098;14.506;2022-10-31T21:15:12;106.07;;;45.22;;
34872;SDS011;21084;51.098;14.506;2022-10-31T21:17:44;118.57;;;51.33;;
34872;SDS011;21084;51.098;14.506;2022-10-31T21:20:12;110.65;;;46.15;;
34872;SDS011;21084;51.098;14.506;2022-10-31T21:22:41;94.82;;;40.75;;
34872;SDS011;21084;51.098;14.506;2022-10-31T21:25:09;83.20;;;36.90;;
34872;SDS011;21084;51.098;14.506;2022-10-31T21:27:37;78.38;;;34.38;;
34872;SDS011;21084;51.098;14.506;2022-10-31T21:30:08;64.13;;;32.85;;
34872;SDS011;21084;51.098;14.506;2022-10-31T21:32:39;59.83;;;28.75;;
34872;SDS011;21084;51.098;14.506;2022-10-31T21:35:08;54.00;;;29.63;;
34872;SDS011;21084;51.098;14.506;2022-10-31T21:37:36;63.05;;;30.02;;
34872;SDS011;21084;51.098;14.506;2022-10-31T21:40:05;55.30;;;30.20;;
34872;SDS011;21084;51.098;14.506;2022-10-31T21:42:34;62.72;;;32.88;;
34872;SDS011;21084;51.098;14.506;2022-10-31T21:45:03;64.97;;;35.13;;
34872;SDS011;21084;51.098;14.506;2022-10-31T21:47:33;55.00;;;32.53;;
34872;SDS011;21084;51.098;14.506;2022-10-31T21:50:02;59.88;;;29.38;;
34872;SDS011;21084;51.098;14.506;2022-10-31T21:52:31;62.38;;;29.30;;
34872;SDS011;21084;51.098;14.506;2022-10-31T21:55:00;58.00;;;30.13;;
34872;SDS011;21084;51.098;14.506;2022-10-31T21:57:27;60.47;;;33.08;;
34872;SDS011;21084;51.098;14.506;2022-10-31T21:59:55;58.97;;;31.08;;
34872;SDS011;21084;51.098;14.506;2022-10-31T22:02:24;59.03;;;31.45;;
34872;SDS011;21084;51.098;14.506;2022-10-31T22:04:54;60.15;;;33.30;;
34872;SDS011;21084;51.098;14.506;2022-10-31T22:07:22;67.70;;;33.15;;
34872;SDS011;21084;51.098;14.506;2022-10-31T22:09:51;76.30;;;42.22;;
34872;SDS011;21084;51.098;14.506;2022-10-31T22:12:19;64.07;;;31.70;;
34872;SDS011;21084;51.098;14.506;2022-10-31T22:14:47;64.22;;;31.70;;
34872;SDS011;21084;51.098;14.506;2022-10-31T22:17:19;59.15;;;29.50;;
34872;SDS011;21084;51.098;14.506;2022-10-31T22:19:48;60.33;;;31.08;;
34872;SDS011;21084;51.098;14.506;2022-10-31T22:22:17;64.38;;;29.88;;
34872;SDS011;21084;51.098;14.506;2022-10-31T22:24:46;63.42;;;30.42;;
34872;SDS011;21084;51.098;14.506;2022-10-31T22:27:14;55.83;;;28.40;;
34872;SDS011;21084;51.098;14.506;2022-10-31T22:29:42;53.88;;;28.20;;
34872;SDS011;21084;51.098;14.506;2022-10-31T22:32:11;48.38;;;29.48;;
34872;SDS011;21084;51.098;14.506;2022-10-31T22:34:39;49.17;;;27.65;;
34872;SDS011;21084;51.098;14.506;2022-10-31T22:37:08;48.35;;;26.42;;
34872;SDS011;21084;51.098;14.506;2022-10-31T22:39:46;54.17;;;26.85;;
34872;SDS011;21084;51.098;14.506;2022-10-31T22:42:14;45.90;;;24.35;;
34872;SDS011;21084;51.098;14.506;2022-10-31T22:44:44;48.90;;;24.50;;
34872;SDS011;21084;51.098;14.506;2022-10-31T22:47:13;49.17;;;25.77;;
34872;SDS011;21084;51.098;14.506;2022-10-31T22:49:41;45.35;;;22.63;;
34872;SDS011;21084;51.098;14.506;2022-10-31T22:52:09;45.03;;;23.70;;
34872;SDS011;21084;51.098;14.506;2022-10-31T22:54:37;44.83;;;24.33;;
34872;SDS011;21084;51.098;14.506;2022-10-31T22:57:07;42.05;;;23.80;;
34872;SDS011;21084;51.098;14.506;2022-10-31T22:59:35;43.47;;;24.15;;
34872;SDS011;21084;51.098;14.506;2022-10-31T23:02:03;53.28;;;24.65;;
34872;SDS011;21084;51.098;14.506;2022-10-31T23:04:36;46.80;;;24.60;;
34872;SDS011;21084;51.098;14.506;2022-10-31T23:07:07;48.53;;;23.95;;
34872;SDS011;21084;51.098;14.506;2022-10-31T23:09:39;51.63;;;26.80;;
34872;SDS011;21084;51.098;14.506;2022-10-31T23:12:09;45.40;;;23.35;;
34872;SDS011;21084;51.098;14.506;2022-10-31T23:14:54;48.47;;;23.88;;
34872;SDS011;21084;51.098;14.506;2022-10-31T23:17:22;47.58;;;22.92;;
34872;SDS011;21084;51.098;14.506;2022-10-31T23:19:51;39.22;;;21.60;;
34872;SDS011;21084;51.098;14.506;2022-10-31T23:22:20;47.40;;;23.55;;
34872;SDS011;21084;51.098;14.506;2022-10-31T23:24:48;45.47;;;23.85;;
34872;SDS011;21084;51.098;14.506;2022-10-31T23:27:19;43.50;;;23.70;;
34872;SDS011;21084;51.098;14.506;2022-10-31T23:29:47;45.10;;;22.55;;
34872;SDS011;21084;51.098;14.506;2022-10-31T23:32:18;39.17;;;20.92;;
34872;SDS011;21084;51.098;14.506;2022-10-31T23:34:48;48.13;;;22.88;;
34872;SDS011;21084;51.098;14.506;2022-10-31T23:37:18;46.20;;;22.73;;
34872;SDS011;21084;51.098;14.506;2022-10-31T23:39:47;54.13;;;23.08;;
34872;SDS011;21084;51.098;14.506;2022-10-31T23:42:18;44.30;;;22.10;;
34872;SDS011;21084;51.098;14.506;2022-10-31T23:44:48;45.00;;;22.45;;
34872;SDS011;21084;51.098;14.506;2022-10-31T23:47:17;37.08;;;21.60;;
34872;SDS011;21084;51.098;14.506;2022-10-31T23:49:46;45.25;;;21.73;;
34872;SDS011;21084;51.098;14.506;2022-10-31T23:52:15;49.03;;;22.13;;
34872;SDS011;21084;51.098;14.506;2022-10-31T23:54:45;41.50;;;21.13;;
34872;SDS011;21084;51.098;14.506;2022-10-31T23:57:14;49.90;;;19.90;;
34872;SDS011;21084;51.098;14.506;2022-10-31T23:59:46;43.67;;;22.17;;
